Terminal Aerodrome Forecast
Issued by NWS

Home | Current Version | Previous Version | Text Only | Print | Product List | Glossary On
Versions: 1 2 3 4 5 6 7 8 9 10 11 12 13 14 15 16 17 18 19 20 21 22 23 24 25 26 27 28 29 30 31 32 33 34
000
FTUS44 KOUN 221526 AAA
TAFLAW
TAF AMD
KLAW 221526Z 2215/2312 12010KT 5SM -TSRA BR SCT006 OVC025CB
      TEMPO 2216/2218 2SM +TSRA BR SCT005 OVC012CB
     FM222200 16012KT 4SM BR OVC008
     FM230200 15010KT 1SM BR OVC004
     FM230900 18010KT 5SM BR BKN012=

USA.gov is the U.S. government's official web portal to all federal, state and local government web resources and services.